createdAt,value
2023-02-26T00:01:25.789Z,88.08
2023-02-26T00:03:55.765Z,88.74
2023-02-26T00:06:24.625Z,88.93
2023-02-26T00:08:52.583Z,88.29
2023-02-26T00:11:20.716Z,88.67
2023-02-26T00:13:48.528Z,88.30
2023-02-26T00:16:22.374Z,88.67
2023-02-26T00:18:50.090Z,88.72
2023-02-26T00:21:19.444Z,89.13
2023-02-26T00:23:47.165Z,89.96
2023-02-26T00:26:14.907Z,89.64
2023-02-26T00:28:43.213Z,89.59
2023-02-26T00:31:11.264Z,89.52
2023-02-26T00:33:39.089Z,90.05
2023-02-26T00:36:25.395Z,90.46
2023-02-26T00:39:07.117Z,90.34
2023-02-26T00:41:36.311Z,90.05
2023-02-26T00:44:04.030Z,89.75
2023-02-26T00:46:37.680Z,90.59
2023-02-26T00:49:49.165Z,90.42
2023-02-26T00:52:36.573Z,90.84
2023-02-26T00:55:04.395Z,91.63
2023-02-26T00:57:31.752Z,91.75
2023-02-26T00:59:59.128Z,91.96
2023-02-26T01:02:27.332Z,92.35
2023-02-26T01:04:56.272Z,92.47
2023-02-26T01:07:24.759Z,92.19
2023-02-26T01:09:52.361Z,91.51
2023-02-26T01:12:19.921Z,91.71
2023-02-26T01:14:48.092Z,92.25
2023-02-26T01:17:43.984Z,91.63
2023-02-26T01:20:22.124Z,91.54
2023-02-26T01:22:57.320Z,91.60
2023-02-26T01:25:35.192Z,91.73
2023-02-26T01:28:03.119Z,92.27
2023-02-26T01:30:31.277Z,91.36
2023-02-26T01:33:30.940Z,91.59
2023-02-26T01:36:10.396Z,92.00
2023-02-26T01:38:51.712Z,91.90
2023-02-26T01:41:27.650Z,91.47
2023-02-26T01:44:05.182Z,90.00
2023-02-26T01:46:41.549Z,88.91
2023-02-26T01:49:14.906Z,88.75
2023-02-26T01:51:47.221Z,87.09
2023-02-26T01:54:16.629Z,86.32
2023-02-26T01:56:47.796Z,86.23
2023-02-26T01:59:20.504Z,86.30
2023-02-26T02:01:47.835Z,86.15
2023-02-26T02:04:16.304Z,85.88
2023-02-26T02:06:43.914Z,85.72
2023-02-26T02:09:12.518Z,85.53
2023-02-26T02:12:01.074Z,85.98
2023-02-26T02:15:05.906Z,86.12
2023-02-26T02:17:39.080Z,86.00
2023-02-26T02:20:18.506Z,86.18
2023-02-26T02:23:18.050Z,85.60
2023-02-26T02:26:07.128Z,85.93
2023-02-26T02:28:58.796Z,85.97
2023-02-26T02:31:36.776Z,85.48
2023-02-26T02:34:17.112Z,79.20
2023-02-26T02:37:05.587Z,79.81
2023-02-26T02:39:38.898Z,78.90
2023-02-26T02:42:26.082Z,78.10
2023-02-26T02:44:59.010Z,78.24
2023-02-26T02:47:29.249Z,79.02
2023-02-26T02:50:10.737Z,79.05
2023-02-26T02:52:50.719Z,77.40
2023-02-26T02:55:32.248Z,76.28
2023-02-26T02:58:14.799Z,75.36
2023-02-26T03:00:47.964Z,74.77
2023-02-26T03:03:46.368Z,72.19
2023-02-26T03:06:13.864Z,72.05
2023-02-26T03:08:43.060Z,70.04
2023-02-26T03:11:10.951Z,68.51
2023-02-26T03:13:40.461Z,69.14
2023-02-26T03:16:24.722Z,69.61
2023-02-26T03:19:31.860Z,69.31
2023-02-26T03:22:29.217Z,68.64
2023-02-26T03:25:09.806Z,68.15
2023-02-26T03:27:37.248Z,67.68
2023-02-26T03:30:11.940Z,67.72
2023-02-26T03:33:11.615Z,67.24
2023-02-26T03:35:57.697Z,66.68
2023-02-26T03:38:43.938Z,66.50
2023-02-26T03:41:30.776Z,66.13
2023-02-26T03:44:12.699Z,66.32
2023-02-26T03:46:45.399Z,65.93
2023-02-26T03:49:18.731Z,65.70
2023-02-26T03:51:47.592Z,65.67
2023-02-26T03:54:43.548Z,65.63
2023-02-26T03:57:29.508Z,65.43
2023-02-26T04:00:20.407Z,64.67
2023-02-26T04:02:58.930Z,64.28
2023-02-26T04:05:40.655Z,64.27
2023-02-26T04:08:08.327Z,63.73
2023-02-26T04:10:44.011Z,64.21
2023-02-26T04:13:11.984Z,63.99
2023-02-26T04:15:39.462Z,64.48
2023-02-26T04:18:06.994Z,64.70
2023-02-26T04:20:35.383Z,65.17
2023-02-26T04:23:02.841Z,65.83
2023-02-26T04:25:30.902Z,66.33
2023-02-26T04:27:59.834Z,67.12
2023-02-26T04:30:27.618Z,67.62
2023-02-26T04:32:55.686Z,68.34
2023-02-26T04:35:23.523Z,69.42
2023-02-26T04:37:51.112Z,69.78
2023-02-26T04:40:18.858Z,70.40
2023-02-26T04:42:47.513Z,70.88
2023-02-26T04:45:19.451Z,70.64
2023-02-26T04:47:46.836Z,70.78
2023-02-26T04:50:14.653Z,70.50
2023-02-26T04:52:43.745Z,70.77
2023-02-26T04:55:11.247Z,71.15
2023-02-26T04:57:39.475Z,71.43
2023-02-26T05:00:07.874Z,71.57
2023-02-26T05:02:37.881Z,70.94
2023-02-26T05:05:05.298Z,71.37
2023-02-26T05:07:33.201Z,71.89
2023-02-26T05:10:00.579Z,72.39
2023-02-26T05:12:27.962Z,73.03
2023-02-26T05:14:55.381Z,73.79
2023-02-26T05:17:23.610Z,73.61
2023-02-26T05:19:51.076Z,73.65
2023-02-26T05:22:18.606Z,73.90
2023-02-26T05:24:47.175Z,74.62
2023-02-26T05:27:15.040Z,74.45
2023-02-26T05:29:46.367Z,74.01
2023-02-26T05:32:15.458Z,73.89
2023-02-26T05:34:44.141Z,73.61
2023-02-26T05:37:11.477Z,73.47
2023-02-26T05:39:41.477Z,73.74
2023-02-26T05:42:09.401Z,73.18
2023-02-26T05:44:36.876Z,73.52
2023-02-26T05:47:04.702Z,73.70
2023-02-26T05:49:32.227Z,73.65
2023-02-26T05:51:59.564Z,73.52
2023-02-26T05:54:27.036Z,73.84
2023-02-26T05:56:54.508Z,74.00
2023-02-26T05:59:22.653Z,73.86
2023-02-26T06:01:50.643Z,73.94
2023-02-26T06:04:18.216Z,74.26
2023-02-26T06:06:45.659Z,73.85
2023-02-26T06:09:13.104Z,73.87
2023-02-26T06:11:40.619Z,73.83
2023-02-26T06:14:08.068Z,73.52
2023-02-26T06:16:35.988Z,73.61
2023-02-26T06:19:03.522Z,73.23
2023-02-26T06:21:30.996Z,73.45
2023-02-26T06:23:58.444Z,73.19
2023-02-26T06:26:26.424Z,72.86
2023-02-26T06:28:54.276Z,72.73
2023-02-26T06:31:21.786Z,72.32
2023-02-26T06:33:49.319Z,72.32
2023-02-26T06:36:17.524Z,72.29
2023-02-26T06:38:45.547Z,72.07
2023-02-26T06:41:13.888Z,71.67
2023-02-26T06:43:41.243Z,71.65
2023-02-26T06:46:08.773Z,71.69
2023-02-26T06:48:36.395Z,72.25
2023-02-26T06:51:04.023Z,72.44
2023-02-26T06:53:32.133Z,72.91
2023-02-26T06:55:59.591Z,72.68
2023-02-26T06:58:27.020Z,73.14
2023-02-26T07:00:54.536Z,73.43
2023-02-26T07:03:22.227Z,75.73
2023-02-26T07:05:50.017Z,75.94
2023-02-26T07:08:17.572Z,77.69
2023-02-26T07:10:47.496Z,78.61
2023-02-26T07:13:15.858Z,80.21
2023-02-26T07:15:46.144Z,79.43
2023-02-26T07:18:13.808Z,79.66
2023-02-26T07:20:42.167Z,78.60
2023-02-26T07:23:09.525Z,78.99
2023-02-26T07:25:37.515Z,78.24
2023-02-26T07:28:05.236Z,78.90
2023-02-26T07:30:32.768Z,79.13
2023-02-26T07:33:00.326Z,76.98
2023-02-26T07:35:28.130Z,76.58
2023-02-26T07:37:55.597Z,76.94
2023-02-26T07:40:22.967Z,75.68
2023-02-26T07:42:50.875Z,75.25
2023-02-26T07:45:22.488Z,74.08
2023-02-26T07:47:51.998Z,72.95
2023-02-26T07:50:21.019Z,73.30
2023-02-26T07:52:48.431Z,72.94
2023-02-26T07:55:15.868Z,71.01
2023-02-26T07:57:43.208Z,71.33
2023-02-26T08:00:11.350Z,70.51
2023-02-26T08:02:58.512Z,69.32
2023-02-26T08:05:26.891Z,67.92
2023-02-26T08:07:55.764Z,67.21
2023-02-26T08:10:23.140Z,66.71
2023-02-26T08:12:50.528Z,65.87
2023-02-26T08:15:17.927Z,64.99
2023-02-26T08:17:45.484Z,64.16
2023-02-26T08:20:14.925Z,64.05
2023-02-26T08:22:42.283Z,63.89
2023-02-26T08:25:09.986Z,62.91
2023-02-26T08:27:37.337Z,61.54
2023-02-26T08:30:07.512Z,60.69
2023-02-26T08:32:35.357Z,61.38
2023-02-26T08:35:02.785Z,60.56
2023-02-26T08:37:30.376Z,59.98
2023-02-26T08:39:57.740Z,59.26
2023-02-26T08:42:25.076Z,59.47
2023-02-26T08:44:52.502Z,58.92
2023-02-26T08:47:28.464Z,58.27
2023-02-26T08:49:57.112Z,58.11
2023-02-26T08:52:24.764Z,56.20
2023-02-26T08:54:52.306Z,55.93
2023-02-26T08:57:19.767Z,55.51
2023-02-26T08:59:47.176Z,55.76
2023-02-26T09:02:14.812Z,55.23
2023-02-26T09:04:42.387Z,53.98
2023-02-26T09:07:09.772Z,53.78
2023-02-26T09:09:37.143Z,53.75
2023-02-26T09:12:04.726Z,53.61
2023-02-26T09:14:32.058Z,53.44
2023-02-26T09:16:59.406Z,53.16
2023-02-26T09:19:26.958Z,53.00
2023-02-26T09:21:54.349Z,52.23
2023-02-26T09:24:21.746Z,52.05
2023-02-26T09:26:49.109Z,52.46
2023-02-26T09:29:16.388Z,52.22
2023-02-26T09:31:43.996Z,51.47
2023-02-26T09:34:12.638Z,51.68
2023-02-26T09:36:40.573Z,51.48
2023-02-26T09:39:08.859Z,51.85
2023-02-26T09:41:43.219Z,51.25
2023-02-26T09:44:16.001Z,51.11
2023-02-26T09:46:57.569Z,51.32
2023-02-26T09:49:40.077Z,50.81
2023-02-26T09:52:18.843Z,50.33
2023-02-26T09:54:58.878Z,51.08
2023-02-26T09:57:40.268Z,51.17
2023-02-26T10:00:17.850Z,51.52
2023-02-26T10:02:48.047Z,51.40
2023-02-26T10:05:26.170Z,50.75
2023-02-26T10:08:11.992Z,50.54
2023-02-26T10:10:51.506Z,50.70
2023-02-26T10:13:26.000Z,51.07
2023-02-26T10:15:57.002Z,50.42
2023-02-26T10:18:30.484Z,50.99
2023-02-26T10:21:04.020Z,48.69
2023-02-26T10:23:37.271Z,48.11
2023-02-26T10:26:19.546Z,47.73
2023-02-26T10:29:14.994Z,47.33
2023-02-26T10:32:06.562Z,46.36
2023-02-26T10:34:43.793Z,46.77
2023-02-26T10:37:20.232Z,46.08
2023-02-26T10:39:56.161Z,46.11
2023-02-26T10:42:30.482Z,46.28
2023-02-26T10:45:27.824Z,45.83
2023-02-26T10:48:14.195Z,46.07
2023-02-26T10:50:48.660Z,45.69
2023-02-26T10:53:16.014Z,45.52
2023-02-26T10:55:57.160Z,44.87
2023-02-26T10:58:26.045Z,45.82
2023-02-26T11:00:55.684Z,45.13
2023-02-26T11:03:43.894Z,44.95
2023-02-26T11:06:19.096Z,44.05
2023-02-26T11:08:50.960Z,44.24
2023-02-26T11:11:42.339Z,44.05
2023-02-26T11:14:10.635Z,44.58
2023-02-26T11:16:46.686Z,44.49
2023-02-26T11:19:16.472Z,43.89
2023-02-26T11:21:47.273Z,42.73
2023-02-26T11:24:34.707Z,42.01
2023-02-26T11:27:05.215Z,41.01
2023-02-26T11:29:38.491Z,41.11
2023-02-26T11:32:07.709Z,41.63
2023-02-26T11:34:36.601Z,41.48
2023-02-26T11:37:04.661Z,40.73
2023-02-26T11:39:35.644Z,40.86
2023-02-26T11:42:04.271Z,41.85
2023-02-26T11:44:39.765Z,41.33
2023-02-26T11:47:20.780Z,40.49
2023-02-26T11:49:54.237Z,41.00
2023-02-26T11:52:33.714Z,40.47
2023-02-26T11:55:03.771Z,39.67
2023-02-26T11:57:33.188Z,39.43
2023-02-26T12:00:01.794Z,39.40
2023-02-26T12:02:35.263Z,39.33
2023-02-26T12:05:06.405Z,39.21
2023-02-26T12:07:33.911Z,39.08
2023-02-26T12:10:01.392Z,39.26
2023-02-26T12:12:38.102Z,39.34
2023-02-26T12:15:46.890Z,38.86
2023-02-26T12:18:38.329Z,38.32
2023-02-26T12:21:14.385Z,38.39
2023-02-26T12:23:56.070Z,38.11
2023-02-26T12:26:27.069Z,38.21
2023-02-26T12:29:15.849Z,38.46
2023-02-26T12:32:01.773Z,38.09
2023-02-26T12:34:58.699Z,38.73
2023-02-26T12:37:44.384Z,38.60
2023-02-26T12:40:30.890Z,38.14
2023-02-26T12:43:11.834Z,38.54
2023-02-26T12:45:57.648Z,38.50
2023-02-26T12:48:33.886Z,39.11
2023-02-26T12:51:19.613Z,39.26
2023-02-26T12:54:05.701Z,39.68
2023-02-26T12:57:02.359Z,39.35
2023-02-26T12:59:38.819Z,39.57
2023-02-26T13:02:27.637Z,40.00
2023-02-26T13:05:00.971Z,39.67
2023-02-26T13:07:37.117Z,39.78
2023-02-26T13:10:18.247Z,39.74
2023-02-26T13:12:55.339Z,39.95
2023-02-26T13:15:42.627Z,39.18
2023-02-26T13:18:13.685Z,39.71
2023-02-26T13:20:50.924Z,39.57
2023-02-26T13:23:23.538Z,39.37
2023-02-26T13:25:57.497Z,39.53
2023-02-26T13:28:42.545Z,39.05
2023-02-26T13:31:35.407Z,39.76
2023-02-26T13:34:11.552Z,39.47
2023-02-26T13:36:39.710Z,39.67
2023-02-26T13:39:13.912Z,39.88
2023-02-26T13:41:48.360Z,39.89
2023-02-26T13:44:21.656Z,40.11
2023-02-26T13:47:26.574Z,40.37
2023-02-26T13:49:59.818Z,40.51
2023-02-26T13:52:30.935Z,40.21
2023-02-26T13:54:59.520Z,40.38
2023-02-26T13:57:32.758Z,40.69
2023-02-26T14:00:13.136Z,40.67
2023-02-26T14:02:51.630Z,40.46
2023-02-26T14:05:46.949Z,40.86
2023-02-26T14:08:17.296Z,40.79
2023-02-26T14:10:47.386Z,40.53
2023-02-26T14:13:51.687Z,40.54
2023-02-26T14:16:24.405Z,40.65
2023-02-26T14:18:52.890Z,40.50
2023-02-26T14:21:39.104Z,40.28
2023-02-26T14:24:09.466Z,39.78
2023-02-26T14:26:38.571Z,40.05
2023-02-26T14:29:05.873Z,40.10
2023-02-26T14:32:03.200Z,40.16
2023-02-26T14:34:38.033Z,40.06
2023-02-26T14:37:11.274Z,40.30
2023-02-26T14:39:58.873Z,40.39
2023-02-26T14:42:49.433Z,40.75
2023-02-26T14:45:16.713Z,40.65
2023-02-26T14:47:45.807Z,40.33
2023-02-26T14:50:19.785Z,40.83
2023-02-26T14:52:59.859Z,41.28
2023-02-26T14:55:48.116Z,40.72
2023-02-26T14:58:37.240Z,40.36
2023-02-26T15:01:20.854Z,40.29
2023-02-26T15:04:24.428Z,40.73
2023-02-26T15:06:54.701Z,40.87
2023-02-26T15:10:04.061Z,40.78
2023-02-26T15:13:09.266Z,41.05
2023-02-26T15:15:38.458Z,41.01
2023-02-26T15:18:24.795Z,41.25
2023-02-26T15:21:02.229Z,41.75
2023-02-26T15:23:52.087Z,42.09
2023-02-26T15:26:29.758Z,42.26
2023-02-26T15:28:59.045Z,42.16
2023-02-26T15:31:53.405Z,42.44
2023-02-26T15:34:22.413Z,42.31
2023-02-26T15:36:53.402Z,42.85
2023-02-26T15:39:23.817Z,42.46
2023-02-26T15:41:54.240Z,41.78
2023-02-26T15:44:25.929Z,42.17
2023-02-26T15:46:55.309Z,42.31
2023-02-26T15:49:29.996Z,42.16
2023-02-26T15:51:59.962Z,42.57
2023-02-26T15:54:35.515Z,42.44
2023-02-26T15:57:03.868Z,42.52
2023-02-26T15:59:32.981Z,42.37
2023-02-26T16:02:02.766Z,42.55
2023-02-26T16:04:30.273Z,41.71
2023-02-26T16:06:58.915Z,41.39
2023-02-26T16:09:30.924Z,41.56
2023-02-26T16:12:02.310Z,41.75
2023-02-26T16:14:34.572Z,41.81
2023-02-26T16:17:04.653Z,41.35
2023-02-26T16:19:41.760Z,41.13
2023-02-26T16:22:29.483Z,41.43
2023-02-26T16:25:20.498Z,41.42
2023-02-26T16:28:00.365Z,41.74
2023-02-26T16:30:35.979Z,42.15
2023-02-26T16:33:07.829Z,42.95
2023-02-26T16:35:39.198Z,43.87
2023-02-26T16:38:17.314Z,44.15
2023-02-26T16:40:45.477Z,44.89
2023-02-26T16:43:33.489Z,45.71
2023-02-26T16:46:03.520Z,45.95
2023-02-26T16:49:03.596Z,46.12
2023-02-26T16:51:37.355Z,46.54
2023-02-26T16:54:20.170Z,46.68
2023-02-26T16:56:52.435Z,46.83
2023-02-26T16:59:25.494Z,46.90
2023-02-26T17:02:11.650Z,47.08
2023-02-26T17:04:39.883Z,47.67
2023-02-26T17:07:22.347Z,47.76
2023-02-26T17:09:54.250Z,47.48
2023-02-26T17:12:23.179Z,47.59
2023-02-26T17:15:00.710Z,47.31
2023-02-26T17:17:28.341Z,47.54
2023-02-26T17:19:55.862Z,47.61
2023-02-26T17:22:29.030Z,48.00
2023-02-26T17:24:56.508Z,47.88
2023-02-26T17:27:34.135Z,48.20
2023-02-26T17:30:06.600Z,47.44
2023-02-26T17:32:36.038Z,47.23
2023-02-26T17:35:06.066Z,46.65
2023-02-26T17:37:35.119Z,46.80
2023-02-26T17:40:05.474Z,46.76
2023-02-26T17:42:32.996Z,46.34
2023-02-26T17:45:00.545Z,46.20
2023-02-26T17:47:28.034Z,46.43
2023-02-26T17:49:55.655Z,46.64
2023-02-26T17:52:23.067Z,46.29
2023-02-26T17:54:50.551Z,46.69
2023-02-26T17:57:21.094Z,46.79
2023-02-26T17:59:50.045Z,46.44
2023-02-26T18:02:27.665Z,46.48
2023-02-26T18:04:55.117Z,46.41
2023-02-26T18:07:24.059Z,46.43
2023-02-26T18:09:51.469Z,46.35
2023-02-26T18:12:21.726Z,46.40
2023-02-26T18:14:49.631Z,46.21
2023-02-26T18:17:24.017Z,46.18
2023-02-26T18:19:52.127Z,46.42
2023-02-26T18:22:23.918Z,46.05
2023-02-26T18:24:52.263Z,45.96
2023-02-26T18:27:22.912Z,45.75
2023-02-26T18:29:50.753Z,46.27
2023-02-26T18:32:23.008Z,46.77
2023-02-26T18:34:51.606Z,46.28
2023-02-26T18:37:22.036Z,46.10
2023-02-26T18:39:50.874Z,45.39
2023-02-26T18:42:24.235Z,44.40
2023-02-26T18:44:52.906Z,44.34
2023-02-26T18:47:21.948Z,43.85
2023-02-26T18:49:50.606Z,43.44
2023-02-26T18:52:18.749Z,43.08
2023-02-26T18:54:46.133Z,43.03
2023-02-26T18:57:13.595Z,42.86
2023-02-26T18:59:41.199Z,43.28
2023-02-26T19:02:11.918Z,43.44
2023-02-26T19:04:40.263Z,43.41
2023-02-26T19:07:09.109Z,43.34
2023-02-26T19:09:36.608Z,43.50
2023-02-26T19:12:05.725Z,43.08
2023-02-26T19:14:33.537Z,42.94
2023-02-26T19:17:01.138Z,42.99
2023-02-26T19:19:29.275Z,42.71
2023-02-26T19:21:58.604Z,42.67
2023-02-26T19:24:25.909Z,42.53
2023-02-26T19:26:53.377Z,42.31
2023-02-26T19:29:20.724Z,42.55
2023-02-26T19:31:48.280Z,42.32
2023-02-26T19:34:16.475Z,42.14
2023-02-26T19:36:48.210Z,42.16
2023-02-26T19:39:18.876Z,42.18
2023-02-26T19:41:49.124Z,42.10
2023-02-26T19:44:17.315Z,41.53
2023-02-26T19:46:44.873Z,41.92
2023-02-26T19:49:12.681Z,41.39
2023-02-26T19:51:40.350Z,41.82
2023-02-26T19:54:08.503Z,41.79
2023-02-26T19:56:36.441Z,41.77
2023-02-26T19:59:03.871Z,41.92
2023-02-26T20:01:31.789Z,41.92
2023-02-26T20:04:00.914Z,41.04
2023-02-26T20:06:28.780Z,41.31
2023-02-26T20:08:56.398Z,41.36
2023-02-26T20:11:24.537Z,41.28
2023-02-26T20:13:52.108Z,41.46
2023-02-26T20:16:20.124Z,41.07
2023-02-26T20:18:47.696Z,41.19
2023-02-26T20:21:15.146Z,41.01
2023-02-26T20:23:42.686Z,41.42
2023-02-26T20:26:12.640Z,41.96
2023-02-26T20:28:40.736Z,41.54
2023-02-26T20:31:08.651Z,41.74
2023-02-26T20:33:38.410Z,41.92
2023-02-26T20:36:08.037Z,41.83
2023-02-26T20:38:35.565Z,42.12
2023-02-26T20:41:04.322Z,42.16
2023-02-26T20:43:32.470Z,41.97
2023-02-26T20:46:00.152Z,41.71
2023-02-26T20:48:27.895Z,42.25
2023-02-26T20:51:00.603Z,42.25
2023-02-26T20:53:28.584Z,42.20
2023-02-26T20:55:56.462Z,42.32
2023-02-26T20:58:25.370Z,42.23
2023-02-26T21:00:56.252Z,42.69
2023-02-26T21:03:24.531Z,42.61
2023-02-26T21:05:52.132Z,42.53
2023-02-26T21:08:19.764Z,42.64
2023-02-26T21:10:50.181Z,42.23
2023-02-26T21:13:17.854Z,42.50
2023-02-26T21:15:45.325Z,42.59
2023-02-26T21:18:13.140Z,42.43
2023-02-26T21:20:40.577Z,42.35
2023-02-26T21:23:08.027Z,42.47
2023-02-26T21:25:35.467Z,42.91
2023-02-26T21:28:02.933Z,42.86
2023-02-26T21:30:30.470Z,42.71
2023-02-26T21:32:57.984Z,42.22
2023-02-26T21:35:25.433Z,42.41
2023-02-26T21:37:53.639Z,42.42
2023-02-26T21:40:21.312Z,41.94
2023-02-26T21:42:48.739Z,42.68
2023-02-26T21:45:16.168Z,42.89
2023-02-26T21:47:43.652Z,42.86
2023-02-26T21:50:11.489Z,42.33
2023-02-26T21:52:39.009Z,42.72
2023-02-26T21:55:06.746Z,42.69
2023-02-26T21:57:34.035Z,42.70
2023-02-26T22:00:01.378Z,42.41
2023-02-26T22:03:05.488Z,42.54
2023-02-26T22:05:32.893Z,42.77
2023-02-26T22:08:00.372Z,42.93
2023-02-26T22:10:27.629Z,42.73
2023-02-26T22:12:54.927Z,43.14
2023-02-26T22:15:22.307Z,43.13
2023-02-26T22:17:49.580Z,43.38
2023-02-26T22:20:17.144Z,43.11
2023-02-26T22:22:44.413Z,43.11
2023-02-26T22:25:12.685Z,42.79
2023-02-26T22:27:40.182Z,43.02
2023-02-26T22:30:08.226Z,42.77
2023-02-26T22:32:35.664Z,43.27
2023-02-26T22:35:03.515Z,43.09
2023-02-26T22:37:30.877Z,43.35
2023-02-26T22:39:58.228Z,43.21
2023-02-26T22:42:25.535Z,43.27
2023-02-26T22:44:52.885Z,43.47
2023-02-26T22:47:20.304Z,43.34
2023-02-26T22:49:47.652Z,43.72
2023-02-26T22:52:15.456Z,43.78
2023-02-26T22:54:45.524Z,43.45
2023-02-26T22:57:13.342Z,43.47
2023-02-26T22:59:40.897Z,42.52
2023-02-26T23:02:08.443Z,43.10
2023-02-26T23:04:35.870Z,42.92
2023-02-26T23:07:03.154Z,43.42
2023-02-26T23:09:30.488Z,43.50
2023-02-26T23:11:57.831Z,42.96
2023-02-26T23:14:25.187Z,43.08
2023-02-26T23:16:52.582Z,43.05
2023-02-26T23:19:19.907Z,42.98
2023-02-26T23:21:47.235Z,42.97
2023-02-26T23:24:14.717Z,43.10
2023-02-26T23:26:42.054Z,42.89
2023-02-26T23:29:09.829Z,42.55
2023-02-26T23:31:37.625Z,42.82
2023-02-26T23:34:06.988Z,42.92
2023-02-26T23:36:34.522Z,42.82
2023-02-26T23:39:02.000Z,42.87
2023-02-26T23:41:30.161Z,42.76
2023-02-26T23:43:57.538Z,43.27
2023-02-26T23:46:24.863Z,43.17
2023-02-26T23:48:52.282Z,43.50
2023-02-26T23:51:19.622Z,43.61
2023-02-26T23:53:46.913Z,44.18
2023-02-26T23:56:14.317Z,43.83
2023-02-26T23:58:41.731Z,43.89
